Time;durP1;ratioP1;P1;durP2;ratioP2;P2;SDS_P1;SDS_P2;PMS_P1;PMS_P2;Temp;Humidity;BMP_temperature;BMP_pressure;BME280_temperature;BME280_humidity;BME280_pressure;Samples;Min_cycle;Max_cycle;Signal;HPM_P1;HPM_P2
2023/07/01 00:00:04;;;;;;;4.00;2.72;;;;;;;;;;4401088;32;316766;-88
2023/07/01 00:02:32;;;;;;;5.00;3.40;;;;;;;;;;4390623;32;317024;-88
2023/07/01 00:05:03;;;;;;;5.37;3.12;;;;;;;;;;4402491;32;317000;-89
2023/07/01 00:07:31;;;;;;;5.65;2.95;;;;;;;;;;4391040;32;317084;-89
2023/07/01 00:09:58;;;;;;;3.78;3.22;;;;;;;;;;4402012;32;316711;-88
2023/07/01 00:12:26;;;;;;;6.68;2.95;;;;;;;;;;4391143;32;316887;-88
2023/07/01 00:14:53;;;;;;;5.57;2.83;;;;;;;;;;4401527;32;316948;-88
2023/07/01 00:17:21;;;;;;;4.80;3.17;;;;;;;;;;4391253;32;316735;-88
2023/07/01 00:19:48;;;;;;;4.82;3.28;;;;;;;;;;4402036;32;316901;-88
2023/07/01 00:22:17;;;;;;;4.60;3.28;;;;;;;;;;4399997;32;316689;-88
2023/07/01 00:24:44;;;;;;;8.27;3.30;;;;;;;;;;4401742;32;418835;-89
2023/07/01 00:27:12;;;;;;;4.32;3.08;;;;;;;;;;4417420;32;316859;-88
2023/07/01 00:29:40;;;;;;;5.25;3.62;;;;;;;;;;4404257;32;316744;-89
2023/07/01 00:32:08;;;;;;;4.72;3.37;;;;;;;;;;4417315;32;316963;-89
2023/07/01 00:34:36;;;;;;;3.62;3.12;;;;;;;;;;4405693;32;316653;-89
2023/07/01 00:37:03;;;;;;;5.32;3.35;;;;;;;;;;4416514;32;316632;-89
2023/07/01 00:39:32;;;;;;;4.37;2.92;;;;;;;;;;4406987;32;317011;-90
2023/07/01 00:42:00;;;;;;;4.95;3.10;;;;;;;;;;4417364;32;316654;-89
2023/07/01 00:44:27;;;;;;;5.18;2.90;;;;;;;;;;4406060;32;316844;-88
2023/07/01 00:46:55;;;;;;;6.72;3.10;;;;;;;;;;4416952;32;316571;-89
2023/07/01 00:49:23;;;;;;;3.83;2.78;;;;;;;;;;4405963;32;316868;-91
2023/07/01 00:51:51;;;;;;;7.85;3.05;;;;;;;;;;4416829;32;316464;-88
2023/07/01 00:54:18;;;;;;;5.62;2.92;;;;;;;;;;4405935;32;316977;-89
2023/07/01 00:56:47;;;;;;;3.50;3.10;;;;;;;;;;4417022;32;316556;-88
2023/07/01 00:59:15;;;;;;;5.72;3.08;;;;;;;;;;4416000;32;316712;-90
2023/07/01 01:01:47;;;;;;;3.25;2.87;;;;;;;;;;4402487;32;415887;-90
2023/07/01 01:04:23;;;;;;;6.12;2.92;;;;;;;;;;4417012;32;316921;-90
2023/07/01 01:06:56;;;;;;;4.50;2.85;;;;;;;;;;4403984;32;416693;-88
2023/07/01 01:09:29;;;;;;;3.95;3.28;;;;;;;;;;4405826;32;316722;-88
2023/07/01 01:12:01;;;;;;;5.85;3.58;;;;;;;;;;4415549;32;315737;-88
2023/07/01 01:14:30;;;;;;;4.40;2.80;;;;;;;;;;4405778;32;316750;-88
2023/07/01 01:16:59;;;;;;;9.18;3.17;;;;;;;;;;4415817;32;316735;-88
2023/07/01 01:19:37;;;;;;;12.32;3.08;;;;;;;;;;4405255;32;317014;-86
2023/07/01 01:22:14;;;;;;;6.55;4.20;;;;;;;;;;4416922;32;317503;-87
2023/07/01 01:24:43;;;;;;;6.30;3.83;;;;;;;;;;4405961;32;316700;-88
2023/07/01 01:27:16;;;;;;;6.07;3.65;;;;;;;;;;4416398;32;316675;-89
2023/07/01 01:29:45;;;;;;;6.15;3.85;;;;;;;;;;4402788;32;419395;-89
2023/07/01 01:32:13;;;;;;;4.45;3.55;;;;;;;;;;4414030;32;316485;-88
2023/07/01 01:34:40;;;;;;;5.57;3.08;;;;;;;;;;4405170;32;316683;-87
2023/07/01 01:37:14;;;;;;;5.97;3.40;;;;;;;;;;4415566;32;316752;-88
2023/07/01 01:39:45;;;;;;;6.00;3.67;;;;;;;;;;4405942;32;325187;-88
2023/07/01 01:42:18;;;;;;;9.57;4.15;;;;;;;;;;4415612;32;316634;-88
2023/07/01 01:44:53;;;;;;;4.25;3.85;;;;;;;;;;4403131;32;419476;-88
2023/07/01 01:47:23;;;;;;;8.48;3.40;;;;;;;;;;4406242;32;316744;-89
2023/07/01 01:49:54;;;;;;;5.78;3.42;;;;;;;;;;4397499;32;316639;-88
2023/07/01 01:52:23;;;;;;;5.72;3.47;;;;;;;;;;4402273;32;316488;-90
2023/07/01 01:54:56;;;;;;;5.60;4.22;;;;;;;;;;4414404;32;316665;-88
2023/07/01 01:57:24;;;;;;;6.32;3.87;;;;;;;;;;4405145;32;316634;-90
2023/07/01 01:59:53;;;;;;;8.73;4.45;;;;;;;;;;4415170;32;316868;-88
2023/07/01 02:02:21;;;;;;;5.07;3.85;;;;;;;;;;4406277;32;316756;-88
2023/07/01 02:04:48;;;;;;;5.22;4.20;;;;;;;;;;4415632;32;316554;-88
2023/07/01 02:07:15;;;;;;;7.47;4.57;;;;;;;;;;4415314;32;316558;-88
2023/07/01 02:09:43;;;;;;;5.37;3.90;;;;;;;;;;4402282;32;415996;-88
2023/07/01 02:12:10;;;;;;;5.10;3.45;;;;;;;;;;4418021;32;316562;-88
2023/07/01 02:14:38;;;;;;;5.53;4.03;;;;;;;;;;4406343;32;316766;-88
2023/07/01 02:17:07;;;;;;;4.85;3.58;;;;;;;;;;4417739;32;316619;-88
2023/07/01 02:19:35;;;;;;;7.18;4.30;;;;;;;;;;4406216;32;317138;-88
2023/07/01 02:22:02;;;;;;;5.10;4.00;;;;;;;;;;4418878;32;316589;-88
2023/07/01 02:24:30;;;;;;;4.82;3.58;;;;;;;;;;4408046;32;316776;-88
2023/07/01 02:26:59;;;;;;;6.60;4.40;;;;;;;;;;4416570;32;316689;-88
2023/07/01 02:29:26;;;;;;;6.78;4.15;;;;;;;;;;4406600;32;316841;-89
2023/07/01 02:31:54;;;;;;;6.65;4.00;;;;;;;;;;4416856;32;316687;-89
2023/07/01 02:34:27;;;;;;;8.45;4.10;;;;;;;;;;4407575;32;316855;-89
2023/07/01 02:36:55;;;;;;;6.25;4.35;;;;;;;;;;4417077;32;316707;-89
2023/07/01 02:39:23;;;;;;;8.20;4.28;;;;;;;;;;4407542;32;316669;-89
2023/07/01 02:41:50;;;;;;;7.43;4.35;;;;;;;;;;4418824;32;317295;-89
2023/07/01 02:44:18;;;;;;;5.78;3.97;;;;;;;;;;4403907;32;332640;-88
2023/07/01 02:46:45;;;;;;;12.55;4.40;;;;;;;;;;4418543;32;316929;-89
2023/07/01 02:49:13;;;;;;;5.37;3.47;;;;;;;;;;4417339;32;317653;-89
2023/07/01 02:51:42;;;;;;;11.18;4.20;;;;;;;;;;4406460;32;351546;-89
2023/07/01 02:54:10;;;;;;;5.80;3.67;;;;;;;;;;4417038;32;317890;-89
2023/07/01 02:56:37;;;;;;;7.15;4.00;;;;;;;;;;4407092;32;316588;-89
2023/07/01 02:59:05;;;;;;;4.00;3.55;;;;;;;;;;4415715;32;339592;-90
2023/07/01 03:01:32;;;;;;;9.18;4.18;;;;;;;;;;4406556;32;316871;-89
2023/07/01 03:04:00;;;;;;;9.52;3.85;;;;;;;;;;4416892;32;316582;-89
2023/07/01 03:06:27;;;;;;;5.87;4.85;;;;;;;;;;4406398;32;317033;-89
2023/07/01 03:08:56;;;;;;;5.68;4.18;;;;;;;;;;4418221;32;316557;-90
2023/07/01 03:11:24;;;;;;;5.97;4.15;;;;;;;;;;4406113;32;317017;-89
2023/07/01 03:13:51;;;;;;;5.18;3.97;;;;;;;;;;4417665;32;316758;-89
2023/07/01 03:16:20;;;;;;;4.70;4.10;;;;;;;;;;4403724;32;316740;-89
2023/07/01 03:18:48;;;;;;;6.55;4.65;;;;;;;;;;4416837;32;316741;-89
2023/07/01 03:21:16;;;;;;;6.25;4.72;;;;;;;;;;4417098;32;335507;-89
2023/07/01 03:23:44;;;;;;;7.80;4.40;;;;;;;;;;4404428;32;415947;-89
2023/07/01 03:26:13;;;;;;;4.75;4.20;;;;;;;;;;4417415;32;317063;-89
2023/07/01 03:28:41;;;;;;;12.63;4.90;;;;;;;;;;4405098;32;316783;-89
2023/07/01 03:31:08;;;;;;;13.88;5.20;;;;;;;;;;4418154;32;318133;-89
2023/07/01 03:33:36;;;;;;;15.63;5.07;;;;;;;;;;4406760;32;317735;-90
2023/07/01 03:36:03;;;;;;;8.93;4.18;;;;;;;;;;4418089;32;318038;-89
2023/07/01 03:38:31;;;;;;;16.00;5.18;;;;;;;;;;4406820;32;316657;-89
2023/07/01 03:40:58;;;;;;;6.85;4.50;;;;;;;;;;4418092;32;318033;-89
2023/07/01 03:43:28;;;;;;;7.62;5.10;;;;;;;;;;4406666;32;316785;-90
2023/07/01 03:45:56;;;;;;;8.95;4.47;;;;;;;;;;4416853;32;315430;-90
2023/07/01 03:48:23;;;;;;;6.35;4.75;;;;;;;;;;4405444;32;316753;-89
2023/07/01 03:50:51;;;;;;;8.98;4.43;;;;;;;;;;4416512;32;316769;-89
2023/07/01 03:53:18;;;;;;;8.73;5.40;;;;;;;;;;4407133;32;316868;-89
2023/07/01 03:55:47;;;;;;;8.85;4.53;;;;;;;;;;4415992;32;353599;-89
2023/07/01 03:58:21;;;;;;;7.25;4.90;;;;;;;;;;4417442;32;317252;-90
2023/07/01 04:00:50;;;;;;;6.53;4.82;;;;;;;;;;4404077;32;415903;-89
2023/07/01 04:03:17;;;;;;;11.63;4.95;;;;;;;;;;4407027;32;316788;-89
2023/07/01 04:05:45;;;;;;;5.68;3.80;;;;;;;;;;4416660;32;318154;-89
2023/07/01 04:08:13;;;;;;;6.18;4.25;;;;;;;;;;4416910;32;316998;-89
2023/07/01 04:10:40;;;;;;;7.20;4.55;;;;;;;;;;4407234;32;317050;-89
2023/07/01 04:13:10;;;;;;;6.93;4.37;;;;;;;;;;4416635;32;317029;-90
2023/07/01 04:15:37;;;;;;;5.85;4.05;;;;;;;;;;4406531;32;317249;-90
2023/07/01 04:18:06;;;;;;;12.75;4.20;;;;;;;;;;4417574;32;316693;-90
2023/07/01 04:20:34;;;;;;;8.82;5.80;;;;;;;;;;4406023;32;317567;-90
2023/07/01 04:23:01;;;;;;;7.43;4.37;;;;;;;;;;4415080;32;316892;-90
2023/07/01 04:25:28;;;;;;;8.48;4.95;;;;;;;;;;4406129;32;316822;-90
2023/07/01 04:27:56;;;;;;;7.32;4.65;;;;;;;;;;4416450;32;316808;-90
2023/07/01 04:30:26;;;;;;;9.18;4.30;;;;;;;;;;4404563;32;316757;-89
2023/07/01 04:32:53;;;;;;;12.48;5.82;;;;;;;;;;4417227;32;316716;-90
2023/07/01 04:35:22;;;;;;;11.40;5.45;;;;;;;;;;4388358;32;318360;-89
2023/07/01 04:37:49;;;;;;;14.68;4.87;;;;;;;;;;4409404;32;317837;-89
2023/07/01 04:40:17;;;;;;;9.73;5.50;;;;;;;;;;4405680;32;318131;-88
2023/07/01 04:42:50;;;;;;;11.02;5.53;;;;;;;;;;4415697;32;316909;-89
2023/07/01 04:45:18;;;;;;;10.88;4.95;;;;;;;;;;4402053;32;353703;-89
2023/07/01 04:47:47;;;;;;;8.65;5.37;;;;;;;;;;4415418;32;317886;-88
2023/07/01 04:50:17;;;;;;;8.07;5.70;;;;;;;;;;4414588;32;317165;-88
2023/07/01 04:52:46;;;;;;;9.27;6.30;;;;;;;;;;4402099;32;419356;-88
2023/07/01 04:55:13;;;;;;;12.85;6.25;;;;;;;;;;4416323;32;316714;-90
2023/07/01 04:57:41;;;;;;;12.02;6.70;;;;;;;;;;4401522;32;419778;-89
2023/07/01 05:00:11;;;;;;;18.77;6.47;;;;;;;;;;4415480;32;317667;-89
2023/07/01 05:02:39;;;;;;;8.60;5.28;;;;;;;;;;4405011;32;317975;-90
2023/07/01 05:05:08;;;;;;;8.07;5.10;;;;;;;;;;4415156;32;316936;-90
2023/07/01 05:07:38;;;;;;;9.02;5.25;;;;;;;;;;4406354;32;316711;-91
2023/07/01 05:10:11;;;;;;;6.87;5.37;;;;;;;;;;4416360;32;316761;-88
2023/07/01 05:12:39;;;;;;;5.82;4.87;;;;;;;;;;4406211;32;316631;-88
2023/07/01 05:15:07;;;;;;;5.53;4.68;;;;;;;;;;4414331;32;316930;-89
2023/07/01 05:17:35;;;;;;;8.43;5.03;;;;;;;;;;4404823;32;316745;-88
2023/07/01 05:20:03;;;;;;;9.50;5.32;;;;;;;;;;4416527;32;315954;-88
2023/07/01 05:22:31;;;;;;;5.72;5.12;;;;;;;;;;4406221;32;317150;-88
2023/07/01 05:24:58;;;;;;;7.55;5.03;;;;;;;;;;4416249;32;317022;-88
2023/07/01 05:27:28;;;;;;;5.30;4.32;;;;;;;;;;4405826;32;316727;-88
2023/07/01 05:29:55;;;;;;;6.90;4.43;;;;;;;;;;4414461;32;316884;-88
2023/07/01 05:32:23;;;;;;;6.12;4.40;;;;;;;;;;4404188;32;316978;-85
2023/07/01 05:34:51;;;;;;;7.28;4.55;;;;;;;;;;4415898;32;317030;-85
2023/07/01 05:37:18;;;;;;;6.07;4.72;;;;;;;;;;4405166;32;316872;-85
2023/07/01 05:39:47;;;;;;;8.32;4.70;;;;;;;;;;4415123;32;317016;-82
2023/07/01 05:42:15;;;;;;;7.93;4.72;;;;;;;;;;4414530;32;339002;-82
2023/07/01 05:44:44;;;;;;;7.22;4.78;;;;;;;;;;4402671;32;416012;-84
2023/07/01 05:47:11;;;;;;;9.82;4.47;;;;;;;;;;4418549;32;316963;-84
2023/07/01 05:49:38;;;;;;;4.97;4.03;;;;;;;;;;4406523;32;316983;-78
2023/07/01 05:52:06;;;;;;;6.78;5.32;;;;;;;;;;4418960;32;316682;-78
2023/07/01 05:54:34;;;;;;;5.87;4.53;;;;;;;;;;4407119;32;316883;-78
2023/07/01 05:57:01;;;;;;;5.32;3.83;;;;;;;;;;4419307;32;316697;-79
2023/07/01 05:59:29;;;;;;;6.50;5.00;;;;;;;;;;4406766;32;316797;-80
2023/07/01 06:01:58;;;;;;;13.70;5.25;;;;;;;;;;4418418;32;316970;-79
2023/07/01 06:04:25;;;;;;;8.98;5.22;;;;;;;;;;4409202;32;318138;-79
2023/07/01 06:06:52;;;;;;;6.20;5.22;;;;;;;;;;4418773;32;343010;-79
2023/07/01 06:09:20;;;;;;;10.68;4.50;;;;;;;;;;4407996;32;317019;-80
2023/07/01 06:11:47;;;;;;;6.57;5.65;;;;;;;;;;4419441;32;317659;-80
2023/07/01 06:14:15;;;;;;;6.55;5.28;;;;;;;;;;4418654;32;316924;-80
2023/07/01 06:16:42;;;;;;;7.10;5.60;;;;;;;;;;4405641;32;416146;-80
2023/07/01 06:19:11;;;;;;;9.07;5.05;;;;;;;;;;4417655;32;316812;-81
2023/07/01 06:21:39;;;;;;;8.10;5.87;;;;;;;;;;4407635;32;316672;-81
2023/07/01 06:24:07;;;;;;;15.80;5.62;;;;;;;;;;4419064;32;316786;-84
2023/07/01 06:26:34;;;;;;;6.12;4.93;;;;;;;;;;4408643;32;317912;-80
2023/07/01 06:29:02;;;;;;;7.60;5.45;;;;;;;;;;4417805;32;316719;-84
2023/07/01 06:31:31;;;;;;;10.10;6.43;;;;;;;;;;4407016;32;316960;-81
2023/07/01 06:33:58;;;;;;;8.68;5.03;;;;;;;;;;4418921;32;317954;-84
2023/07/01 06:36:27;;;;;;;7.47;5.25;;;;;;;;;;4407736;32;316915;-80
2023/07/01 06:38:55;;;;;;;8.85;4.97;;;;;;;;;;4417834;32;316969;-81
2023/07/01 06:41:22;;;;;;;6.57;4.93;;;;;;;;;;4408205;32;316799;-80
2023/07/01 06:43:50;;;;;;;13.20;5.03;;;;;;;;;;4416971;32;317092;-81
2023/07/01 06:46:17;;;;;;;5.55;5.00;;;;;;;;;;4407728;32;317994;-80
2023/07/01 06:48:45;;;;;;;18.15;4.97;;;;;;;;;;4417829;32;316847;-80
2023/07/01 06:51:13;;;;;;;10.63;4.97;;;;;;;;;;4418468;32;318016;-82
2023/07/01 06:53:42;;;;;;;6.97;5.32;;;;;;;;;;4404742;32;417170;-80
2023/07/01 06:56:10;;;;;;;7.97;5.93;;;;;;;;;;4416911;32;316934;-80
2023/07/01 06:58:40;;;;;;;7.18;4.87;;;;;;;;;;4408036;32;316920;-79
2023/07/01 07:01:07;;;;;;;5.68;4.70;;;;;;;;;;4418010;32;316634;-84
2023/07/01 07:03:39;;;;;;;8.15;5.22;;;;;;;;;;4407414;32;316641;-80
2023/07/01 07:06:06;;;;;;;8.77;5.85;;;;;;;;;;4418116;32;316958;-79
2023/07/01 07:08:35;;;;;;;4.75;3.92;;;;;;;;;;4407171;32;316748;-80
2023/07/01 07:11:04;;;;;;;6.90;4.80;;;;;;;;;;4418266;32;316808;-80
2023/07/01 07:13:31;;;;;;;7.40;4.95;;;;;;;;;;4408346;32;316765;-79
2023/07/01 07:15:58;;;;;;;11.23;4.82;;;;;;;;;;4417974;32;316812;-82
2023/07/01 07:18:26;;;;;;;6.07;4.72;;;;;;;;;;4407286;32;317684;-81
2023/07/01 07:20:53;;;;;;;5.93;4.37;;;;;;;;;;4418205;32;316840;-79
2023/07/01 07:23:20;;;;;;;6.57;4.45;;;;;;;;;;4404760;32;316901;-89
2023/07/01 07:25:48;;;;;;;6.18;4.95;;;;;;;;;;4417271;32;317026;-82
2023/07/01 07:28:17;;;;;;;8.30;4.65;;;;;;;;;;4419470;32;316662;-79
2023/07/01 07:30:45;;;;;;;5.25;3.87;;;;;;;;;;4399397;32;416692;-78
2023/07/01 07:33:12;;;;;;;5.72;4.70;;;;;;;;;;4417508;32;316820;-80
2023/07/01 07:35:39;;;;;;;4.93;4.00;;;;;;;;;;4406665;32;349576;-78
2023/07/01 07:38:07;;;;;;;5.30;4.53;;;;;;;;;;4417126;32;316768;-79
2023/07/01 07:40:34;;;;;;;10.75;4.70;;;;;;;;;;4407766;32;317063;-80
2023/07/01 07:43:10;;;;;;;6.35;4.32;;;;;;;;;;4417089;32;345824;-79
2023/07/01 07:45:39;;;;;;;5.95;4.75;;;;;;;;;;4407353;32;316831;-90
2023/07/01 07:48:07;;;;;;;11.68;4.82;;;;;;;;;;4418024;32;317094;-82
2023/07/01 07:50:35;;;;;;;6.22;4.57;;;;;;;;;;4407861;32;317929;-84
2023/07/01 07:53:03;;;;;;;12.52;5.05;;;;;;;;;;4417703;32;316697;-82
2023/07/01 07:55:33;;;;;;;8.57;4.75;;;;;;;;;;4407334;32;317863;-78
2023/07/01 07:58:01;;;;;;;5.93;4.90;;;;;;;;;;4416441;32;316976;-79
2023/07/01 08:00:29;;;;;;;8.57;5.35;;;;;;;;;;4404801;32;316641;-80
2023/07/01 08:02:58;;;;;;;6.47;4.47;;;;;;;;;;4415721;32;316703;-79
2023/07/01 08:05:27;;;;;;;10.90;5.03;;;;;;;;;;4408616;32;316833;-80
2023/07/01 08:07:55;;;;;;;5.18;4.65;;;;;;;;;;4414156;32;318114;-80
2023/07/01 08:10:23;;;;;;;9.80;5.82;;;;;;;;;;4404776;32;316681;-80
2023/07/01 08:12:51;;;;;;;7.07;5.80;;;;;;;;;;4417029;32;317117;-80
2023/07/01 08:15:18;;;;;;;7.00;5.53;;;;;;;;;;4403975;32;316839;-80
2023/07/01 08:17:46;;;;;;;9.05;5.68;;;;;;;;;;4416744;32;317325;-78
2023/07/01 08:20:15;;;;;;;7.40;5.45;;;;;;;;;;4417022;32;316882;-79
2023/07/01 08:22:42;;;;;;;9.52;5.18;;;;;;;;;;4403795;32;418905;-79
2023/07/01 08:25:10;;;;;;;6.07;5.10;;;;;;;;;;4417155;32;317099;-79
2023/07/01 08:27:37;;;;;;;9.35;5.22;;;;;;;;;;4405788;32;316747;-79
2023/07/01 08:30:06;;;;;;;6.65;5.32;;;;;;;;;;4416274;32;316756;-78
2023/07/01 08:32:33;;;;;;;8.68;5.55;;;;;;;;;;4406400;32;316670;-79
2023/07/01 08:35:01;;;;;;;6.00;5.25;;;;;;;;;;4415017;32;316895;-78
2023/07/01 08:37:31;;;;;;;6.78;5.15;;;;;;;;;;4407163;32;316986;-87
2023/07/01 08:39:59;;;;;;;9.55;5.40;;;;;;;;;;4416892;32;322919;-86
2023/07/01 08:42:32;;;;;;;7.47;5.35;;;;;;;;;;4406313;32;316681;-82
2023/07/01 08:45:00;;;;;;;8.75;5.10;;;;;;;;;;4415902;32;345205;-79
2023/07/01 08:47:28;;;;;;;7.07;5.90;;;;;;;;;;4405856;32;316670;-79
2023/07/01 08:49:58;;;;;;;11.82;5.93;;;;;;;;;;4417713;32;316843;-80
2023/07/01 08:52:32;;;;;;;9.40;5.15;;;;;;;;;;4406853;32;323738;-80
2023/07/01 08:54:59;;;;;;;8.07;5.50;;;;;;;;;;4415900;32;316762;-83
2023/07/01 08:57:27;;;;;;;10.85;5.40;;;;;;;;;;4404959;32;355883;-81
2023/07/01 08:59:54;;;;;;;9.27;5.97;;;;;;;;;;4416157;32;317745;-79
2023/07/01 09:02:25;;;;;;;10.63;5.62;;;;;;;;;;4405359;32;340574;-79
2023/07/01 09:04:52;;;;;;;7.95;5.82;;;;;;;;;;4416997;32;317861;-79
2023/07/01 09:07:20;;;;;;;9.50;5.70;;;;;;;;;;4405477;32;316594;-79
2023/07/01 09:09:49;;;;;;;9.63;5.20;;;;;;;;;;4416914;32;316826;-79
2023/07/01 09:12:16;;;;;;;8.05;5.30;;;;;;;;;;4407211;32;316574;-82
2023/07/01 09:14:58;;;;;;;7.18;4.70;;;;;;;;;;4415588;32;316772;-79
2023/07/01 09:17:30;;;;;;;5.95;5.12;;;;;;;;;;4405892;32;316806;-79
2023/07/01 09:20:01;;;;;;;6.22;5.03;;;;;;;;;;4415856;32;316927;-81
2023/07/01 09:22:29;;;;;;;6.03;5.15;;;;;;;;;;4406824;32;316558;-86
2023/07/01 09:24:58;;;;;;;7.40;5.10;;;;;;;;;;4416354;32;316653;-82
2023/07/01 09:27:25;;;;;;;12.07;6.03;;;;;;;;;;4405773;32;316815;-80
2023/07/01 09:29:53;;;;;;;8.75;5.12;;;;;;;;;;4414146;32;317795;-81
2023/07/01 09:32:29;;;;;;;5.43;4.57;;;;;;;;;;4405897;32;316758;-81
2023/07/01 09:34:58;;;;;;;5.68;5.05;;;;;;;;;;4416345;32;316868;-81
2023/07/01 09:37:25;;;;;;;6.53;5.07;;;;;;;;;;4406388;32;316742;-81
2023/07/01 09:39:53;;;;;;;6.90;5.40;;;;;;;;;;4414020;32;316980;-84
2023/07/01 09:42:22;;;;;;;8.35;5.45;;;;;;;;;;4405939;32;316756;-82
2023/07/01 09:45:10;;;;;;;6.25;5.40;;;;;;;;;;4415648;32;316602;-84
2023/07/01 09:47:37;;;;;;;15.88;6.47;;;;;;;;;;4405987;32;316745;-89
2023/07/01 09:50:06;;;;;;;7.32;5.28;;;;;;;;;;4416129;32;317780;-83
2023/07/01 09:52:34;;;;;;;8.48;5.72;;;;;;;;;;4405606;32;316705;-83
2023/07/01 09:55:03;;;;;;;11.23;6.53;;;;;;;;;;4413941;32;316902;-90
2023/07/01 09:57:32;;;;;;;9.05;7.00;;;;;;;;;;4406250;32;317829;-82
2023/07/01 10:00:01;;;;;;;6.93;5.82;;;;;;;;;;4416028;32;316611;-87
2023/07/01 10:02:29;;;;;;;7.65;5.72;;;;;;;;;;4406113;32;316760;-81
2023/07/01 10:04:56;;;;;;;7.70;5.75;;;;;;;;;;4415498;32;316616;-86
2023/07/01 10:07:24;;;;;;;6.43;5.17;;;;;;;;;;4403052;32;316671;-86
2023/07/01 10:09:52;;;;;;;9.55;5.45;;;;;;;;;;4414912;32;315588;-85
2023/07/01 10:12:21;;;;;;;6.40;5.60;;;;;;;;;;4403752;32;329318;-84
2023/07/01 10:14:52;;;;;;;8.07;4.93;;;;;;;;;;4415401;32;316726;-84
2023/07/01 10:17:20;;;;;;;6.28;5.35;;;;;;;;;;4404838;32;316867;-85
2023/07/01 10:19:47;;;;;;;6.55;4.93;;;;;;;;;;4414826;32;316802;-85
2023/07/01 10:22:26;;;;;;;9.25;4.75;;;;;;;;;;4415452;32;316687;-85
2023/07/01 10:25:01;;;;;;;5.57;4.95;;;;;;;;;;4403900;32;387342;-87
2023/07/01 10:28:16;;;;;;;6.22;5.00;;;;;;;;;;4405562;32;316669;-90
2023/07/01 10:31:16;;;;;;;9.32;5.55;;;;;;;;;;4365605;32;417133;-92
2023/07/01 10:33:54;;;;;;;6.80;5.62;;;;;;;;;;4373155;32;418723;-90
2023/07/01 10:36:21;;;;;;;12.32;5.15;;;;;;;;;;4374586;32;316659;-91
2023/07/01 10:38:48;;;;;;;8.57;4.93;;;;;;;;;;4387434;32;317797;-93
2023/07/01 10:41:52;;;;;;;6.85;5.32;;;;;;;;;;4384464;32;316485;-91
2023/07/01 10:44:25;;;;;;;5.18;4.60;;;;;;;;;;4378631;32;347362;-89
2023/07/01 10:47:19;;;;;;;9.70;4.55;;;;;;;;;;4387601;32;316530;-91
2023/07/01 10:50:07;;;;;;;6.97;4.60;;;;;;;;;;4375718;32;417228;-95
2023/07/01 10:53:02;;;;;;;6.80;5.47;;;;;;;;;;4377204;32;316635;-94
2023/07/01 10:55:38;;;;;;;6.90;4.95;;;;;;;;;;4377291;32;316768;-87
2023/07/01 10:58:21;;;;;;;6.22;4.15;;;;;;;;;;4388358;32;316694;-88
2023/07/01 11:00:49;;;;;;;4.65;3.92;;;;;;;;;;4369924;32;420016;-84
2023/07/01 11:03:53;;;;;;;6.47;4.18;;;;;;;;;;4377631;32;317007;-88
2023/07/01 11:06:23;;;;;;;5.75;4.30;;;;;;;;;;4377930;32;316523;-83
2023/07/01 11:08:51;;;;;;;4.95;3.83;;;;;;;;;;4386396;32;316761;-84
2023/07/01 11:11:21;;;;;;;7.90;3.80;;;;;;;;;;4378351;32;317407;-84
2023/07/01 11:13:59;;;;;;;5.22;4.55;;;;;;;;;;4387270;32;316863;-85
2023/07/01 11:16:28;;;;;;;4.97;4.47;;;;;;;;;;4376420;32;353151;-86
2023/07/01 11:18:57;;;;;;;7.78;3.92;;;;;;;;;;4387754;32;316790;-83
2023/07/01 11:21:28;;;;;;;8.85;3.33;;;;;;;;;;4378337;32;316945;-79
2023/07/01 11:23:56;;;;;;;8.35;3.92;;;;;;;;;;4385515;32;316785;-79
2023/07/01 11:26:25;;;;;;;4.45;3.35;;;;;;;;;;4377818;32;316563;-88
2023/07/01 11:28:53;;;;;;;5.32;3.83;;;;;;;;;;4393364;32;316737;-78
2023/07/01 11:31:22;;;;;;;5.90;3.37;;;;;;;;;;4406452;32;317041;-78
2023/07/01 11:33:50;;;;;;;5.03;3.97;;;;;;;;;;4418001;32;316999;-78
2023/07/01 11:36:19;;;;;;;4.62;4.10;;;;;;;;;;4408038;32;316735;-78
2023/07/01 11:38:50;;;;;;;8.13;3.80;;;;;;;;;;4417272;32;317023;-78
2023/07/01 11:41:19;;;;;;;6.68;4.28;;;;;;;;;;4404405;32;316687;-79
2023/07/01 11:43:47;;;;;;;6.43;3.87;;;;;;;;;;4416287;32;316776;-77
2023/07/01 11:46:15;;;;;;;8.15;4.20;;;;;;;;;;4417823;32;316797;-77
2023/07/01 11:48:43;;;;;;;5.87;4.03;;;;;;;;;;4402291;32;415878;-77
2023/07/01 11:51:10;;;;;;;4.40;3.50;;;;;;;;;;4416469;32;317089;-84
2023/07/01 11:53:56;;;;;;;4.15;3.47;;;;;;;;;;4406670;32;316891;-78
2023/07/01 11:56:24;;;;;;;5.18;4.00;;;;;;;;;;4406963;32;342546;-75
2023/07/01 11:58:52;;;;;;;5.40;3.67;;;;;;;;;;4415266;32;316666;-77
2023/07/01 12:01:26;;;;;;;4.97;3.87;;;;;;;;;;4403760;32;316669;-79
2023/07/01 12:03:54;;;;;;;4.93;4.15;;;;;;;;;;4416793;32;316678;-78
2023/07/01 12:06:22;;;;;;;6.28;4.05;;;;;;;;;;4407638;32;316669;-78
2023/07/01 12:08:54;;;;;;;4.05;3.62;;;;;;;;;;4417147;32;316745;-78
2023/07/01 12:11:24;;;;;;;8.25;4.10;;;;;;;;;;4406812;32;316879;-77
2023/07/01 12:13:52;;;;;;;5.45;4.43;;;;;;;;;;4415623;32;316587;-76
2023/07/01 12:16:20;;;;;;;4.87;4.03;;;;;;;;;;4407131;32;316818;-77
2023/07/01 12:18:47;;;;;;;6.00;4.10;;;;;;;;;;4416157;32;316730;-77
2023/07/01 12:21:19;;;;;;;8.50;4.10;;;;;;;;;;4404312;32;316496;-78
2023/07/01 12:23:47;;;;;;;4.70;3.58;;;;;;;;;;4395048;32;416424;-78
2023/07/01 12:26:15;;;;;;;5.00;3.75;;;;;;;;;;4417683;32;316606;-77
2023/07/01 12:28:43;;;;;;;7.93;4.30;;;;;;;;;;4402852;32;416119;-78
2023/07/01 12:31:12;;;;;;;4.00;3.60;;;;;;;;;;4416466;32;343819;-77
2023/07/01 12:33:39;;;;;;;5.15;3.62;;;;;;;;;;4405746;32;316923;-77
2023/07/01 12:36:08;;;;;;;5.10;3.90;;;;;;;;;;4417518;32;316566;-84
2023/07/01 12:38:36;;;;;;;6.07;4.17;;;;;;;;;;4404519;32;333411;-77
2023/07/01 12:41:04;;;;;;;5.57;4.35;;;;;;;;;;4415569;32;316963;-77
2023/07/01 12:43:31;;;;;;;6.78;4.47;;;;;;;;;;4405887;32;316870;-77
2023/07/01 12:46:02;;;;;;;5.43;4.18;;;;;;;;;;4416231;32;316647;-78
2023/07/01 12:48:31;;;;;;;6.23;4.50;;;;;;;;;;4394970;32;356043;-77
2023/07/01 12:50:59;;;;;;;5.57;4.20;;;;;;;;;;4416513;32;316634;-77
2023/07/01 12:53:35;;;;;;;5.57;4.55;;;;;;;;;;4398366;32;334677;-79
2023/07/01 12:56:02;;;;;;;4.28;3.87;;;;;;;;;;4415919;32;316816;-78
2023/07/01 12:58:30;;;;;;;4.30;3.75;;;;;;;;;;4406182;32;316923;-77
2023/07/01 13:00:57;;;;;;;6.45;3.90;;;;;;;;;;4416182;32;316686;-77
2023/07/01 13:03:26;;;;;;;10.63;4.68;;;;;;;;;;4406000;32;316927;-76
2023/07/01 13:05:53;;;;;;;7.95;4.62;;;;;;;;;;4416566;32;317888;-77
2023/07/01 13:08:21;;;;;;;5.15;4.50;;;;;;;;;;4406764;32;316931;-77
2023/07/01 13:10:48;;;;;;;6.32;4.03;;;;;;;;;;4415962;32;316773;-77
2023/07/01 13:13:17;;;;;;;6.00;4.12;;;;;;;;;;4416887;32;316781;-77
2023/07/01 13:15:48;;;;;;;6.70;4.80;;;;;;;;;;4402779;32;416139;-77
2023/07/01 13:18:20;;;;;;;5.50;3.85;;;;;;;;;;4416885;32;316691;-77
2023/07/01 13:20:50;;;;;;;5.12;4.28;;;;;;;;;;4398222;32;416745;-77
2023/07/01 13:23:18;;;;;;;6.40;4.62;;;;;;;;;;4406543;32;316621;-77
2023/07/01 13:25:45;;;;;;;4.70;3.58;;;;;;;;;;4415694;32;316765;-77
2023/07/01 13:28:13;;;;;;;6.90;2.97;;;;;;;;;;4396394;32;316674;-77
2023/07/01 13:30:47;;;;;;;3.40;2.80;;;;;;;;;;4388451;32;316870;-77
2023/07/01 13:33:23;;;;;;;4.22;2.40;;;;;;;;;;4400548;32;316634;-77
2023/07/01 13:35:53;;;;;;;5.12;3.40;;;;;;;;;;4388075;32;416328;-76
2023/07/01 13:38:21;;;;;;;5.35;3.65;;;;;;;;;;4390217;32;316874;-77
2023/07/01 13:40:49;;;;;;;5.47;3.70;;;;;;;;;;4400893;32;316875;-77
2023/07/01 13:43:18;;;;;;;6.00;4.32;;;;;;;;;;4390942;32;317263;-78
2023/07/01 13:45:46;;;;;;;3.70;3.40;;;;;;;;;;4401273;32;316838;-78
2023/07/01 13:48:25;;;;;;;5.87;4.00;;;;;;;;;;4400207;32;316635;-77
2023/07/01 13:50:55;;;;;;;6.37;3.08;;;;;;;;;;4388531;32;415690;-78
2023/07/01 13:53:23;;;;;;;6.70;3.37;;;;;;;;;;4389231;32;316724;-84
2023/07/01 13:55:51;;;;;;;4.87;3.40;;;;;;;;;;4400375;32;316800;-77
2023/07/01 13:58:18;;;;;;;6.30;3.60;;;;;;;;;;4387527;32;316807;-78
2023/07/01 14:00:49;;;;;;;7.78;4.82;;;;;;;;;;4401462;32;316754;-78
2023/07/01 14:03:43;;;;;;;13.82;4.35;;;;;;;;;;4399390;32;316601;-79
2023/07/01 14:06:13;;;;;;;4.10;3.45;;;;;;;;;;4401263;32;317866;-79
2023/07/01 14:08:41;;;;;;;4.47;3.80;;;;;;;;;;4393280;32;347190;-78
2023/07/01 14:11:11;;;;;;;6.22;3.72;;;;;;;;;;4403256;32;316734;-79
2023/07/01 14:13:39;;;;;;;7.37;3.33;;;;;;;;;;4393566;32;317132;-78
2023/07/01 14:16:06;;;;;;;5.47;3.72;;;;;;;;;;4403412;32;316862;-78
2023/07/01 14:18:35;;;;;;;7.65;3.45;;;;;;;;;;4394130;32;317132;-78
2023/07/01 14:21:05;;;;;;;6.03;3.78;;;;;;;;;;4404221;32;316836;-77
2023/07/01 14:23:37;;;;;;;6.82;3.87;;;;;;;;;;4392889;32;316891;-77
2023/07/01 14:26:07;;;;;;;4.32;3.87;;;;;;;;;;4404157;32;316915;-77
2023/07/01 14:28:34;;;;;;;5.45;3.00;;;;;;;;;;4392504;32;316740;-78
2023/07/01 14:31:08;;;;;;;5.62;3.45;;;;;;;;;;4383320;32;317168;-78
2023/07/01 14:33:38;;;;;;;7.97;3.30;;;;;;;;;;4402676;32;316775;-78
2023/07/01 14:36:07;;;;;;;5.57;4.30;;;;;;;;;;4388316;32;316866;-78
2023/07/01 14:38:41;;;;;;;6.97;4.28;;;;;;;;;;4402973;32;316577;-78
2023/07/01 14:41:24;;;;;;;13.88;6.10;;;;;;;;;;4393629;32;316845;-80